Time;durP1;ratioP1;P1;durP2;ratioP2;P2;SDS_P1;SDS_P2;PMS_P1;PMS_P2;Temp;Humidity;BMP_temperature;BMP_pressure;BME280_temperature;BME280_humidity;BME280_pressure;Samples;Min_cycle;Max_cycle;Signal;HPM_P1;HPM_P2
2021/07/31 00:01:35;;;;;;;12.53;4.00;;;19.30;67.90;;;;;;5001834;28;20164;-93
2021/07/31 00:04:01;;;;;;;9.10;3.37;;;19.20;67.60;;;;;;5011344;28;20275;-92
2021/07/31 00:06:27;;;;;;;11.20;3.43;;;19.30;67.70;;;;;;5013237;28;20214;-92
2021/07/31 00:08:52;;;;;;;6.75;2.83;;;19.10;67.70;;;;;;5003063;28;20191;-91
2021/07/31 00:11:18;;;;;;;8.90;3.67;;;19.10;68.00;;;;;;5000783;28;20194;-91
2021/07/31 00:13:44;;;;;;;8.23;3.30;;;19.20;67.90;;;;;;4999572;28;20239;-92
2021/07/31 00:16:09;;;;;;;8.23;3.07;;;19.10;68.10;;;;;;4999530;28;20171;-92
2021/07/31 00:18:35;;;;;;;11.93;3.47;;;19.10;68.10;;;;;;5001577;28;20704;-92
2021/07/31 00:21:01;;;;;;;11.20;3.73;;;19.10;68.00;;;;;;4998272;28;20662;-93
2021/07/31 00:23:27;;;;;;;17.73;3.70;;;19.00;67.90;;;;;;4997812;28;20195;-93
2021/07/31 00:25:54;;;;;;;8.23;3.17;;;19.00;68.20;;;;;;4998066;28;20670;-93
2021/07/31 00:28:21;;;;;;;11.75;3.63;;;19.00;68.00;;;;;;4997463;28;20399;-92
2021/07/31 00:30:47;;;;;;;11.55;3.60;;;19.10;68.10;;;;;;4997877;28;20183;-93
2021/07/31 00:33:13;;;;;;;12.37;3.13;;;19.00;68.10;;;;;;4997170;28;20249;-90
2021/07/31 00:35:39;;;;;;;6.40;3.13;;;19.00;68.40;;;;;;4996259;28;20466;-93
2021/07/31 00:38:05;;;;;;;13.00;4.25;;;18.90;68.40;;;;;;4998629;28;20832;-92
2021/07/31 00:40:31;;;;;;;12.07;3.17;;;19.10;68.40;;;;;;4997886;28;20233;-92
2021/07/31 00:42:57;;;;;;;12.60;4.23;;;19.00;68.10;;;;;;4996915;28;20477;-92
2021/07/31 00:45:23;;;;;;;10.85;3.38;;;19.00;68.30;;;;;;4997311;28;20179;-93
2021/07/31 00:47:49;;;;;;;9.13;3.20;;;19.10;68.50;;;;;;4996745;28;20190;-93
2021/07/31 00:50:15;;;;;;;11.33;3.63;;;19.10;68.30;;;;;;4997342;28;20186;-92
2021/07/31 00:52:42;;;;;;;5.80;3.17;;;19.00;68.30;;;;;;4998361;28;20445;-92
2021/07/31 00:55:11;;;;;;;8.60;3.50;;;19.00;68.60;;;;;;4997386;28;20218;-92
2021/07/31 00:57:39;;;;;;;12.05;3.40;;;19.10;68.30;;;;;;4995776;28;20211;-93
2021/07/31 01:00:06;;;;;;;6.82;3.58;;;19.10;68.40;;;;;;4995163;28;20266;-93
2021/07/31 01:02:32;;;;;;;16.10;5.55;;;19.10;68.20;;;;;;5002020;28;20199;-93
2021/07/31 01:04:57;;;;;;;5.97;2.97;;;19.20;68.10;;;;;;4995670;28;20186;-93
2021/07/31 01:07:23;;;;;;;12.67;3.77;;;19.10;68.00;;;;;;4997497;28;20167;-93
2021/07/31 01:09:50;;;;;;;6.72;3.60;;;19.00;68.20;;;;;;5001048;28;20742;-93
2021/07/31 01:12:16;;;;;;;10.95;3.45;;;19.00;68.30;;;;;;4994111;28;20658;-93
2021/07/31 01:14:42;;;;;;;11.43;3.00;;;18.90;68.60;;;;;;4994814;28;20195;-92
2021/07/31 01:17:11;;;;;;;5.57;2.90;;;19.00;68.60;;;;;;4994240;28;20415;-92
2021/07/31 01:19:38;;;;;;;8.80;3.90;;;18.90;68.30;;;;;;4994492;28;20530;-92
2021/07/31 01:22:04;;;;;;;5.63;2.38;;;18.90;68.50;;;;;;4994787;28;20202;-92
2021/07/31 01:24:30;;;;;;;7.47;3.40;;;18.80;68.20;;;;;;4994430;28;20278;-93
2021/07/31 01:26:56;;;;;;;4.80;2.90;;;18.80;68.20;;;;;;4994841;28;20266;-93
2021/07/31 01:29:22;;;;;;;9.80;3.40;;;18.70;68.50;;;;;;4994496;28;20450;-92
2021/07/31 01:31:48;;;;;;;6.50;3.03;;;18.80;68.40;;;;;;4994011;28;20449;-93
2021/07/31 01:34:13;;;;;;;16.73;3.23;;;18.80;68.00;;;;;;4994422;28;20470;-93
2021/07/31 01:36:39;;;;;;;4.57;2.70;;;18.80;68.10;;;;;;4993856;28;20575;-92
2021/07/31 01:39:05;;;;;;;8.13;2.80;;;18.80;68.00;;;;;;4994530;28;20489;-92
2021/07/31 01:41:31;;;;;;;7.72;3.08;;;18.80;68.00;;;;;;4993607;28;20654;-92
2021/07/31 01:43:57;;;;;;;12.43;3.20;;;18.80;68.10;;;;;;4993854;28;20274;-93
2021/07/31 01:46:23;;;;;;;8.00;3.47;;;18.80;68.10;;;;;;4995112;28;20222;-92
2021/07/31 01:48:49;;;;;;;11.10;3.00;;;18.80;68.20;;;;;;4994507;28;20432;-92
2021/07/31 01:51:15;;;;;;;10.13;2.80;;;18.90;68.10;;;;;;4993803;28;20458;-92
2021/07/31 01:53:41;;;;;;;9.95;3.65;;;18.90;68.10;;;;;;4993846;28;20450;-93
2021/07/31 01:56:07;;;;;;;9.95;3.53;;;18.90;68.00;;;;;;4998264;28;20202;-92
2021/07/31 01:58:33;;;;;;;10.60;2.87;;;18.90;68.00;;;;;;5003534;28;20638;-92
2021/07/31 02:00:59;;;;;;;6.80;2.80;;;19.00;68.00;;;;;;4993794;28;20419;-92
2021/07/31 02:03:26;;;;;;;7.57;2.97;;;18.90;67.80;;;;;;4993502;28;20203;-93
2021/07/31 02:05:52;;;;;;;7.95;3.00;;;19.00;67.90;;;;;;4995082;28;20179;-93
2021/07/31 02:08:18;;;;;;;6.00;2.33;;;18.90;67.60;;;;;;4994582;28;20179;-92
2021/07/31 02:10:44;;;;;;;6.10;3.05;;;19.00;67.60;;;;;;4995815;28;20210;-92
2021/07/31 02:13:10;;;;;;;7.77;2.77;;;18.90;67.60;;;;;;5010696;28;20253;-92
2021/07/31 02:15:40;;;;;;;13.55;2.85;;;19.00;67.50;;;;;;4994599;28;20473;-92
2021/07/31 02:18:06;;;;;;;7.72;2.85;;;18.90;67.40;;;;;;4994089;28;20233;-92
2021/07/31 02:20:32;;;;;;;8.85;2.80;;;18.90;67.60;;;;;;4993291;28;20217;-92
2021/07/31 02:22:58;;;;;;;6.57;3.10;;;18.80;67.50;;;;;;4992776;28;20202;-93
2021/07/31 02:25:24;;;;;;;6.00;2.80;;;18.80;67.70;;;;;;4993036;28;20233;-92
2021/07/31 02:27:50;;;;;;;8.70;2.90;;;18.80;67.60;;;;;;4993242;28;20545;-92
2021/07/31 02:30:16;;;;;;;4.80;2.45;;;18.80;67.80;;;;;;4993070;28;20186;-92
2021/07/31 02:32:42;;;;;;;6.50;2.67;;;18.90;67.80;;;;;;4992532;28;20295;-93
2021/07/31 02:35:09;;;;;;;5.00;2.90;;;18.90;67.80;;;;;;4992861;28;20297;-92
2021/07/31 02:37:34;;;;;;;9.18;3.55;;;18.60;67.90;;;;;;4993808;28;20179;-92
2021/07/31 02:40:00;;;;;;;8.47;3.40;;;18.70;68.50;;;;;;4992787;28;20665;-92
2021/07/31 02:42:26;;;;;;;6.03;2.63;;;18.50;68.50;;;;;;4992379;28;20242;-93
2021/07/31 02:44:52;;;;;;;6.60;2.97;;;18.40;69.00;;;;;;4992996;28;20179;-92
2021/07/31 02:47:17;;;;;;;11.40;2.80;;;18.40;69.40;;;;;;4994159;28;20539;-92
2021/07/31 02:49:43;;;;;;;7.00;2.50;;;18.40;69.60;;;;;;4993100;28;20210;-93
2021/07/31 02:52:09;;;;;;;4.30;2.67;;;18.30;69.70;;;;;;4999603;28;20195;-94
2021/07/31 02:54:35;;;;;;;7.43;2.83;;;18.50;69.80;;;;;;5002513;28;20482;-93
2021/07/31 02:57:01;;;;;;;5.13;2.90;;;18.50;69.80;;;;;;4998327;28;20186;-92
2021/07/31 02:59:26;;;;;;;9.73;3.60;;;18.40;69.80;;;;;;4997820;28;20642;-92
2021/07/31 03:01:52;;;;;;;2.47;2.23;;;18.40;70.10;;;;;;4992645;28;20445;-92
2021/07/31 03:04:18;;;;;;;6.10;3.37;;;18.30;70.30;;;;;;4995118;28;20183;-92
2021/07/31 03:06:44;;;;;;;5.83;2.90;;;18.30;70.50;;;;;;4992695;28;20183;-92
2021/07/31 03:09:09;;;;;;;7.67;3.23;;;18.40;70.50;;;;;;4996270;28;20454;-92
2021/07/31 03:11:35;;;;;;;7.10;3.00;;;18.30;70.40;;;;;;4995063;28;20206;-92
2021/07/31 03:14:01;;;;;;;4.63;3.10;;;18.30;70.50;;;;;;4995401;28;20219;-92
2021/07/31 03:16:26;;;;;;;4.97;3.03;;;18.30;70.50;;;;;;4995827;28;20222;-92
2021/07/31 03:18:52;;;;;;;5.30;3.00;;;18.30;70.60;;;;;;5005753;28;20191;-92
2021/07/31 03:21:18;;;;;;;5.33;2.80;;;18.40;70.50;;;;;;4992388;28;20234;-93
2021/07/31 03:23:43;;;;;;;7.30;2.80;;;18.30;70.50;;;;;;4993134;28;20229;-93
2021/07/31 03:26:09;;;;;;;7.77;3.53;;;18.50;70.60;;;;;;4995079;28;20197;-93
2021/07/31 03:28:35;;;;;;;10.50;2.80;;;18.50;70.10;;;;;;4996447;28;20195;-93
2021/07/31 03:31:00;;;;;;;5.83;2.87;;;18.40;70.20;;;;;;4996632;28;20183;-92
2021/07/31 03:33:26;;;;;;;6.90;2.80;;;18.50;70.50;;;;;;4996114;28;20199;-92
2021/07/31 03:35:53;;;;;;;4.00;2.90;;;18.50;70.50;;;;;;4997424;28;20477;-92
2021/07/31 03:38:19;;;;;;;9.35;2.90;;;18.40;70.40;;;;;;4996206;28;20438;-93
2021/07/31 03:40:45;;;;;;;5.67;2.80;;;18.30;70.60;;;;;;4996121;28;20209;-92
2021/07/31 03:43:15;;;;;;;5.60;2.77;;;18.40;70.70;;;;;;4996621;28;20457;-92
2021/07/31 03:45:41;;;;;;;4.90;2.45;;;18.40;71.40;;;;;;4996086;28;20476;-93
2021/07/31 03:48:07;;;;;;;11.00;2.93;;;18.40;70.70;;;;;;5005692;28;20167;-93
2021/07/31 03:50:33;;;;;;;7.43;2.70;;;18.40;70.70;;;;;;5002223;28;20673;-93
2021/07/31 03:52:58;;;;;;;5.50;2.83;;;18.40;70.50;;;;;;4996097;28;20438;-93
2021/07/31 03:55:24;;;;;;;6.20;2.80;;;18.30;70.60;;;;;;4998233;28;20548;-92
2021/07/31 03:57:50;;;;;;;6.10;2.53;;;18.50;70.60;;;;;;4995759;28;20186;-93
2021/07/31 04:00:16;;;;;;;5.37;2.80;;;18.50;70.40;;;;;;4998597;28;20555;-92
2021/07/31 04:02:42;;;;;;;7.85;2.90;;;18.50;70.20;;;;;;4995525;28;20845;-92
2021/07/31 04:05:09;;;;;;;3.93;3.00;;;18.50;70.10;;;;;;4995688;28;20179;-93
2021/07/31 04:07:34;;;;;;;4.72;3.13;;;18.50;70.10;;;;;;4996133;28;20266;-92
2021/07/31 04:10:00;;;;;;;6.73;2.80;;;18.50;70.10;;;;;;4997270;28;20255;-92
2021/07/31 04:12:26;;;;;;;11.73;3.00;;;18.50;70.20;;;;;;4996559;28;20705;-93
2021/07/31 04:14:51;;;;;;;7.60;2.97;;;18.40;70.20;;;;;;4995815;28;20573;-93
2021/07/31 04:17:17;;;;;;;5.20;2.87;;;18.40;70.20;;;;;;4995670;28;20643;-93
2021/07/31 04:19:43;;;;;;;7.00;2.67;;;18.40;70.30;;;;;;4995448;28;20186;-93
2021/07/31 04:22:08;;;;;;;6.87;3.00;;;18.50;70.40;;;;;;5005602;28;20266;-93
2021/07/31 04:24:36;;;;;;;11.07;3.57;;;18.50;70.00;;;;;;5001399;28;20245;-93
2021/07/31 04:27:04;;;;;;;4.30;2.80;;;18.50;70.10;;;;;;4995597;28;20187;-92
2021/07/31 04:29:30;;;;;;;4.65;2.72;;;18.40;70.00;;;;;;4995444;28;20692;-92
2021/07/31 04:31:56;;;;;;;4.50;2.63;;;18.30;70.30;;;;;;4994856;28;20210;-92
2021/07/31 04:34:21;;;;;;;5.97;3.03;;;18.20;70.60;;;;;;4994921;28;20207;-92
2021/07/31 04:36:47;;;;;;;10.23;3.23;;;18.10;71.10;;;;;;4994806;28;20175;-92
2021/07/31 04:39:13;;;;;;;6.57;3.43;;;18.10;71.30;;;;;;4995477;28;20175;-93
2021/07/31 04:41:39;;;;;;;8.80;3.77;;;18.30;71.50;;;;;;4994815;28;20182;-92
2021/07/31 04:44:04;;;;;;;6.17;3.20;;;18.30;71.00;;;;;;5007687;28;20182;-93
2021/07/31 04:46:30;;;;;;;8.67;3.70;;;18.30;71.10;;;;;;4998815;28;20254;-92
2021/07/31 04:48:56;;;;;;;9.60;4.97;;;18.20;71.10;;;;;;4995235;28;20429;-92
2021/07/31 04:51:21;;;;;;;5.87;3.40;;;18.30;71.30;;;;;;4994783;28;20186;-92
2021/07/31 04:53:47;;;;;;;7.77;4.73;;;18.30;71.30;;;;;;4994681;28;20286;-92
2021/07/31 04:56:13;;;;;;;8.70;4.57;;;18.30;71.40;;;;;;4994951;28;20661;-93
2021/07/31 04:58:39;;;;;;;11.98;4.35;;;18.30;71.20;;;;;;4994836;28;20183;-92
2021/07/31 05:01:05;;;;;;;6.35;4.65;;;18.20;71.40;;;;;;4994748;28;20179;-93
2021/07/31 05:03:31;;;;;;;5.73;4.50;;;18.20;71.60;;;;;;4994792;28;20205;-93
2021/07/31 05:05:57;;;;;;;12.50;4.50;;;18.30;71.70;;;;;;4994934;28;20181;-93
2021/07/31 05:08:24;;;;;;;7.35;4.38;;;18.30;71.70;;;;;;4996953;28;20418;-92
2021/07/31 05:10:51;;;;;;;10.32;4.28;;;18.30;71.70;;;;;;4996106;28;20179;-93
2021/07/31 05:13:18;;;;;;;9.35;3.92;;;18.30;71.50;;;;;;4996076;28;20218;-92
2021/07/31 05:15:45;;;;;;;12.45;4.00;;;18.40;71.40;;;;;;4997224;28;20207;-92
2021/07/31 05:18:12;;;;;;;8.15;4.72;;;18.50;71.20;;;;;;4996731;28;20175;-92
2021/07/31 05:20:43;;;;;;;7.32;4.35;;;18.60;70.90;;;;;;4995616;28;20262;-92
2021/07/31 05:23:09;;;;;;;10.07;4.03;;;18.60;70.60;;;;;;4996958;28;20198;-93
2021/07/31 05:25:35;;;;;;;11.13;4.97;;;18.70;70.60;;;;;;4995284;28;20536;-92
2021/07/31 05:28:00;;;;;;;9.57;4.43;;;18.80;70.20;;;;;;5008143;28;20438;-93
2021/07/31 05:30:26;;;;;;;7.23;5.50;;;18.80;70.00;;;;;;4995244;28;20233;-92
2021/07/31 05:32:52;;;;;;;6.93;5.17;;;18.80;69.90;;;;;;4994936;28;20295;-93
2021/07/31 05:35:17;;;;;;;9.90;6.30;;;19.00;69.80;;;;;;4994199;28;20670;-92
2021/07/31 05:37:44;;;;;;;7.70;4.40;;;19.30;69.50;;;;;;4994326;28;20182;-92
2021/07/31 05:40:10;;;;;;;8.40;5.00;;;19.30;68.50;;;;;;5006725;28;20430;-93
2021/07/31 05:42:36;;;;;;;5.22;4.18;;;19.30;68.10;;;;;;4996237;28;20255;-92
2021/07/31 05:45:04;;;;;;;6.57;4.37;;;19.60;67.90;;;;;;4994283;28;20211;-93
2021/07/31 05:47:30;;;;;;;9.82;4.15;;;19.80;66.90;;;;;;5000015;28;20186;-93
2021/07/31 05:49:58;;;;;;;10.20;4.80;;;20.30;66.30;;;;;;4996915;28;20548;-92
2021/07/31 05:52:25;;;;;;;6.70;3.50;;;20.60;64.70;;;;;;4993870;28;20430;-93
2021/07/31 05:54:52;;;;;;;8.93;4.20;;;21.30;63.80;;;;;;4996027;28;20473;-93
2021/07/31 05:57:18;;;;;;;9.07;3.57;;;21.50;62.10;;;;;;4995072;28;20989;-92
2021/07/31 05:59:43;;;;;;;5.93;3.70;;;21.40;61.20;;;;;;4996514;28;20418;-93
2021/07/31 06:02:12;;;;;;;10.53;4.90;;;21.20;61.70;;;;;;4995882;28;20442;-93
2021/07/31 06:04:38;;;;;;;7.20;3.33;;;21.10;61.80;;;;;;4994102;28;20190;-92
2021/07/31 06:07:06;;;;;;;5.90;4.47;;;21.20;61.60;;;;;;4995472;28;20418;-93
2021/07/31 06:09:33;;;;;;;12.93;8.00;;;21.40;61.60;;;;;;4994088;28;20429;-93
2021/07/31 06:11:59;;;;;;;4.70;4.30;;;21.70;60.60;;;;;;4996859;28;20546;-93
2021/07/31 06:14:25;;;;;;;7.57;3.10;;;22.10;60.10;;;;;;4997502;28;20526;-93
2021/07/31 06:16:51;;;;;;;6.70;4.13;;;22.60;58.80;;;;;;4996669;28;20415;-93
2021/07/31 06:19:16;;;;;;;4.00;3.50;;;23.40;57.00;;;;;;4998086;28;20183;-92
2021/07/31 06:21:42;;;;;;;3.77;3.47;;;23.60;55.00;;;;;;4999921;28;20171;-93
2021/07/31 06:24:08;;;;;;;5.30;4.00;;;23.60;54.10;;;;;;5000700;28;20242;-93
2021/07/31 06:26:35;;;;;;;3.83;3.23;;;23.40;54.20;;;;;;4996032;28;20229;-93
2021/07/31 06:29:00;;;;;;;5.53;3.60;;;23.20;55.20;;;;;;4998938;28;20425;-93
2021/07/31 06:31:26;;;;;;;6.50;3.40;;;23.10;55.20;;;;;;4999842;28;20422;-92
2021/07/31 06:33:52;;;;;;;4.03;2.63;;;22.80;55.70;;;;;;5001988;28;20219;-93
2021/07/31 06:36:19;;;;;;;6.63;3.57;;;23.00;56.30;;;;;;5018012;28;20251;-93
2021/07/31 06:38:45;;;;;;;6.53;3.20;;;23.20;55.20;;;;;;4999970;28;20183;-93
2021/07/31 06:41:11;;;;;;;7.90;3.80;;;23.40;54.70;;;;;;5010067;28;20853;-93
2021/07/31 06:43:36;;;;;;;8.37;3.13;;;23.00;54.80;;;;;;4993331;28;20438;-93
2021/07/31 06:46:10;;;;;;;9.60;3.63;;;23.00;55.30;;;;;;4992836;28;20183;-93
2021/07/31 06:48:36;;;;;;;8.13;2.80;;;22.90;55.20;;;;;;4993114;28;20207;-93
2021/07/31 06:51:02;;;;;;;3.97;3.40;;;23.00;55.50;;;;;;4993761;28;20970;-93
2021/07/31 06:53:28;;;;;;;6.90;3.40;;;22.80;55.30;;;;;;4993065;28;20666;-93
2021/07/31 06:55:57;;;;;;;5.53;2.53;;;22.80;55.80;;;;;;4993038;28;20477;-93
2021/07/31 06:58:22;;;;;;;3.87;3.20;;;23.00;55.50;;;;;;4994317;28;20167;-93
2021/07/31 07:00:48;;;;;;;7.13;2.97;;;23.00;55.20;;;;;;4992726;28;20434;-93
2021/07/31 07:03:14;;;;;;;5.47;3.20;;;23.10;55.60;;;;;;4992448;28;20354;-93
2021/07/31 07:05:39;;;;;;;11.10;3.97;;;23.10;55.20;;;;;;4993418;28;20243;-93
2021/07/31 07:08:05;;;;;;;4.33;3.37;;;22.80;55.10;;;;;;4992753;28;20272;-93
2021/07/31 07:10:32;;;;;;;6.80;4.80;;;22.80;55.60;;;;;;4992683;28;20293;-93
2021/07/31 07:12:58;;;;;;;7.13;4.67;;;22.70;55.30;;;;;;4992129;28;20619;-93
2021/07/31 07:15:27;;;;;;;4.80;4.27;;;22.80;55.10;;;;;;4992570;28;20797;-93
2021/07/31 07:17:56;;;;;;;5.17;4.00;;;22.70;55.20;;;;;;4993073;28;20419;-93
2021/07/31 07:20:23;;;;;;;6.33;4.13;;;22.70;55.30;;;;;;4992443;28;20419;-93
2021/07/31 07:22:48;;;;;;;6.90;4.40;;;22.50;55.70;;;;;;4992393;28;20431;-93
2021/07/31 07:25:14;;;;;;;7.47;4.73;;;22.10;55.80;;;;;;4993123;28;20472;-93
2021/07/31 07:27:40;;;;;;;6.87;5.03;;;22.00;56.50;;;;;;4992857;28;20544;-93
2021/07/31 07:30:06;;;;;;;15.00;4.60;;;22.00;57.20;;;;;;4992998;28;20175;-93
2021/07/31 07:32:34;;;;;;;7.77;4.70;;;21.90;57.50;;;;;;5007979;28;20183;-93
2021/07/31 07:35:00;;;;;;;7.20;4.90;;;21.70;57.70;;;;;;4993009;28;20544;-93
2021/07/31 07:37:26;;;;;;;7.73;4.60;;;21.70;57.80;;;;;;5005915;28;20403;-92
2021/07/31 07:39:52;;;;;;;7.90;3.70;;;21.50;58.20;;;;;;4994007;28;20449;-93
2021/07/31 07:42:18;;;;;;;11.50;4.00;;;21.70;58.40;;;;;;4992463;28;20434;-93
2021/07/31 07:44:44;;;;;;;8.70;3.80;;;21.80;57.50;;;;;;4993852;28;20427;-93
2021/07/31 07:47:13;;;;;;;9.27;4.40;;;21.70;57.50;;;;;;4992598;28;20190;-93
2021/07/31 07:49:38;;;;;;;12.77;4.10;;;21.80;56.90;;;;;;4992751;28;20767;-93
2021/07/31 07:52:04;;;;;;;3.77;3.20;;;22.00;56.70;;;;;;4995534;28;20883;-93
2021/07/31 07:54:31;;;;;;;5.03;3.50;;;22.00;56.60;;;;;;4993604;28;20698;-93
2021/07/31 07:56:57;;;;;;;10.73;4.00;;;22.00;57.10;;;;;;4993355;28;20414;-93
2021/07/31 07:59:23;;;;;;;8.03;3.47;;;22.10;55.80;;;;;;4992953;28;20465;-93
2021/07/31 08:01:48;;;;;;;4.63;3.33;;;22.10;56.00;;;;;;4993598;28;20442;-93
2021/07/31 08:04:15;;;;;;;4.00;3.10;;;22.20;56.00;;;;;;4993115;28;20477;-93
2021/07/31 08:06:41;;;;;;;3.10;2.90;;;22.60;55.40;;;;;;4992759;28;20612;-93
2021/07/31 08:09:06;;;;;;;4.33;3.00;;;22.90;54.70;;;;;;4992775;28;20429;-93
2021/07/31 08:11:33;;;;;;;3.10;2.90;;;23.20;54.10;;;;;;4994924;28;20422;-93
2021/07/31 08:13:59;;;;;;;3.83;3.17;;;23.20;53.60;;;;;;4995810;28;20238;-93
2021/07/31 08:16:25;;;;;;;9.50;4.50;;;23.10;53.40;;;;;;4997309;28;20449;-93
2021/07/31 08:18:51;;;;;;;8.07;3.77;;;23.10;53.40;;;;;;4995772;28;20454;-93
2021/07/31 08:21:16;;;;;;;7.07;4.10;;;23.00;53.50;;;;;;4995458;28;20222;-93
2021/07/31 08:23:43;;;;;;;4.83;4.40;;;22.90;53.80;;;;;;4996331;28;20202;-93
2021/07/31 08:26:12;;;;;;;9.10;5.60;;;22.70;53.80;;;;;;4995603;28;20221;-93
2021/07/31 08:28:42;;;;;;;8.37;5.03;;;22.70;54.10;;;;;;5010370;28;20457;-93
2021/07/31 08:31:09;;;;;;;9.17;4.10;;;22.80;53.80;;;;;;4996214;28;20944;-93
2021/07/31 08:33:36;;;;;;;14.23;5.90;;;23.00;54.10;;;;;;4995022;28;20503;-93
2021/07/31 08:36:06;;;;;;;29.23;7.37;;;23.20;53.40;;;;;;4996313;28;20539;-93
2021/07/31 08:38:32;;;;;;;23.33;7.57;;;23.10;52.90;;;;;;4995329;28;20417;-93
2021/07/31 08:40:59;;;;;;;4.87;3.87;;;23.10;52.70;;;;;;4996446;28;20433;-93
2021/07/31 08:43:25;;;;;;;10.60;5.17;;;23.20;51.80;;;;;;5011255;28;20803;-93
2021/07/31 08:45:52;;;;;;;12.63;6.27;;;23.10;51.90;;;;;;4995735;28;20446;-93
2021/07/31 08:48:21;;;;;;;8.57;4.60;;;23.10;52.20;;;;;;4996553;28;20521;-93
2021/07/31 08:50:49;;;;;;;6.93;5.37;;;23.20;52.30;;;;;;4995457;28;20414;-93
2021/07/31 08:53:15;;;;;;;15.53;7.07;;;23.60;51.90;;;;;;4995034;28;20789;-93
2021/07/31 08:55:42;;;;;;;10.83;5.87;;;23.40;51.50;;;;;;4997520;28;20497;-93
2021/07/31 08:58:08;;;;;;;11.90;5.67;;;23.30;51.90;;;;;;4995329;28;20179;-93
2021/07/31 09:00:34;;;;;;;12.90;5.90;;;23.30;52.00;;;;;;4995302;28;20780;-93
2021/07/31 09:03:00;;;;;;;19.73;6.50;;;23.10;51.70;;;;;;4994803;28;20473;-93
2021/07/31 09:05:38;;;;;;;12.23;5.10;;;22.80;51.80;;;;;;4994989;28;20210;-93
2021/07/31 09:08:05;;;;;;;10.37;5.67;;;22.80;52.50;;;;;;4995318;28;20198;-93
2021/07/31 09:10:33;;;;;;;18.13;5.27;;;22.90;51.80;;;;;;4994799;28;20956;-93
2021/07/31 09:13:02;;;;;;;24.03;5.10;;;22.70;52.00;;;;;;4994411;28;20454;-93
2021/07/31 09:15:34;;;;;;;14.90;5.90;;;22.50;52.40;;;;;;4995773;28;20474;-93
2021/07/31 09:18:20;;;;;;;16.50;6.10;;;22.50;53.30;;;;;;4996887;28;20423;-93
2021/07/31 09:21:10;;;;;;;5.30;4.27;;;22.70;53.80;;;;;;5000994;28;20416;-93
2021/07/31 09:23:44;;;;;;;6.50;4.60;;;23.10;53.10;;;;;;4996701;28;20426;-93
2021/07/31 09:26:38;;;;;;;6.73;3.97;;;23.10;51.90;;;;;;5004734;28;20775;-93
2021/07/31 09:29:09;;;;;;;5.97;4.00;;;23.10;51.90;;;;;;4994537;28;20426;-93
2021/07/31 09:31:50;;;;;;;4.33;3.77;;;23.20;51.50;;;;;;4994527;28;20472;-93
2021/07/31 09:34:33;;;;;;;5.50;4.10;;;23.20;51.50;;;;;;4995028;28;20512;-93
2021/07/31 09:37:16;;;;;;;5.10;4.60;;;23.30;51.20;;;;;;4994626;28;20430;-93
2021/07/31 09:39:56;;;;;;;6.10;5.50;;;23.60;51.30;;;;;;4995098;28;20979;-93
2021/07/31 09:42:33;;;;;;;4.80;4.33;;;23.70;51.10;;;;;;4994130;28;20469;-93
2021/07/31 09:45:06;;;;;;;5.20;4.50;;;23.80;51.00;;;;;;4994839;28;20429;-93
2021/07/31 09:47:32;;;;;;;6.30;5.20;;;23.90;50.70;;;;;;5002709;28;20445;-93
2021/07/31 09:49:58;;;;;;;5.73;5.07;;;23.80;49.70;;;;;;4994521;28;20423;-93
2021/07/31 09:52:25;;;;;;;5.67;5.20;;;23.70;49.70;;;;;;4995410;28;20446;-93
2021/07/31 09:54:53;;;;;;;5.43;5.00;;;23.60;49.70;;;;;;4993997;28;20494;-93
2021/07/31 09:57:23;;;;;;;7.33;5.50;;;23.50;50.40;;;;;;4994917;28;20419;-93
2021/07/31 09:59:52;;;;;;;6.30;5.70;;;23.50;50.40;;;;;;4995778;28;20423;-93
2021/07/31 10:02:21;;;;;;;8.63;5.27;;;23.60;51.00;;;;;;4993986;28;20442;-93
2021/07/31 10:04:48;;;;;;;11.20;5.07;;;23.50;51.10;;;;;;4993908;28;20954;-93
2021/07/31 10:07:15;;;;;;;7.60;4.40;;;23.50;50.80;;;;;;4993843;28;20431;-93
2021/07/31 10:09:45;;;;;;;13.43;3.80;;;23.40;51.20;;;;;;4994023;28;20425;-93
2021/07/31 10:12:14;;;;;;;4.07;3.77;;;23.70;51.30;;;;;;4993663;28;20438;-93
2021/07/31 10:14:44;;;;;;;7.30;3.80;;;23.90;51.10;;;;;;4995570;28;20462;-93
2021/07/31 10:17:12;;;;;;;4.47;4.07;;;23.80;50.80;;;;;;4994248;28;20418;-93
2021/07/31 10:19:43;;;;;;;5.93;3.27;;;23.70;50.50;;;;;;4996960;28;20482;-93
2021/07/31 10:22:10;;;;;;;8.80;3.67;;;23.70;50.40;;;;;;5009725;28;20464;-93
2021/07/31 10:25:00;;;;;;;4.90;4.40;;;23.60;50.60;;;;;;4993977;28;20417;-93
2021/07/31 10:27:26;;;;;;;2.97;2.77;;;23.60;50.50;;;;;;4994040;28;20413;-93
2021/07/31 10:29:53;;;;;;;3.77;2.83;;;23.80;50.80;;;;;;4994842;28;20419;-93
2021/07/31 10:32:22;;;;;;;5.47;2.70;;;23.90;50.90;;;;;;4994840;28;20199;-93
2021/07/31 10:34:53;;;;;;;4.83;3.40;;;24.10;50.70;;;;;;4993437;28;20474;-93
2021/07/31 10:37:35;;;;;;;3.60;3.30;;;24.10;49.90;;;;;;4994017;28;21000;-93
2021/07/31 10:40:09;;;;;;;6.57;3.60;;;24.20;49.20;;;;;;4994100;28;20422;-93
2021/07/31 10:42:47;;;;;;;3.13;2.93;;;24.00;49.20;;;;;;4993364;28;21004;-93
2021/07/31 10:45:16;;;;;;;3.73;3.03;;;24.10;49.50;;;;;;4993766;28;20478;-94
2021/07/31 10:47:47;;;;;;;3.43;3.17;;;24.00;49.50;;;;;;4993835;28;20513;-93
2021/07/31 10:50:24;;;;;;;3.63;3.23;;;23.80;50.20;;;;;;4994430;28;20790;-93
2021/07/31 10:53:02;;;;;;;3.83;3.50;;;23.90;50.60;;;;;;5009314;28;20446;-93
2021/07/31 10:55:36;;;;;;;7.40;4.47;;;23.60;50.90;;;;;;4994727;28;20458;-93
2021/07/31 10:58:19;;;;;;;5.43;4.00;;;23.50;51.10;;;;;;4993754;28;20417;-93
2021/07/31 11:00:53;;;;;;;6.50;5.80;;;23.70;51.10;;;;;;4993829;28;20455;-93
2021/07/31 11:03:21;;;;;;;5.67;5.13;;;23.90;50.60;;;;;;4993636;28;20500;-93
2021/07/31 11:05:55;;;;;;;15.60;7.30;;;23.90;49.90;;;;;;4993254;28;20517;-93
2021/07/31 11:08:26;;;;;;;7.17;6.67;;;23.70;49.90;;;;;;4993782;28;20422;-93
2021/07/31 11:11:14;;;;;;;6.20;5.57;;;23.40;50.50;;;;;;4993162;28;20514;-93
2021/07/31 11:13:45;;;;;;;8.27;7.60;;;23.40;51.00;;;;;;4993464;28;20461;-93
2021/07/31 11:16:14;;;;;;;9.03;8.23;;;23.20;51.00;;;;;;5000805;28;20466;-93
2021/07/31 11:18:47;;;;;;;7.63;6.97;;;23.10;51.50;;;;;;5000818;28;20497;-93
2021/07/31 11:21:27;;;;;;;7.40;6.27;;;23.00;51.60;;;;;;4993877;28;20843;-93
2021/07/31 11:23:57;;;;;;;6.70;6.20;;;23.00;52.30;;;;;;4993334;28;20414;-93
2021/07/31 11:26:47;;;;;;;7.33;6.70;;;23.10;52.70;;;;;;4993120;28;20501;-93
2021/07/31 11:29:20;;;;;;;7.57;6.97;;;23.30;52.50;;;;;;4992923;28;20402;-93
2021/07/31 11:32:12;;;;;;;9.47;8.77;;;23.30;52.00;;;;;;4992816;28;20473;-93
2021/07/31 11:34:44;;;;;;;9.43;7.80;;;23.30;51.70;;;;;;4993910;28;20458;-93
2021/07/31 11:37:11;;;;;;;9.90;9.00;;;23.40;52.20;;;;;;4993426;28;20457;-93
2021/07/31 11:39:38;;;;;;;8.63;7.93;;;23.30;51.70;;;;;;4994217;28;20418;-93
2021/07/31 11:42:05;;;;;;;7.13;6.57;;;23.60;51.70;;;;;;4993183;28;20925;-93
2021/07/31 11:44:36;;;;;;;6.53;5.67;;;23.80;50.60;;;;;;4993047;28;20454;-91
2021/07/31 11:47:03;;;;;;;5.63;5.23;;;23.90;50.00;;;;;;4995910;28;20418;-91
2021/07/31 11:49:36;;;;;;;6.13;5.60;;;23.80;49.50;;;;;;4998172;28;20422;-91
2021/07/31 11:52:07;;;;;;;6.00;5.50;;;24.00;49.70;;;;;;4998936;28;20442;-94
2021/07/31 11:54:37;;;;;;;7.23;6.53;;;24.40;49.40;;;;;;4998123;28;20454;-92
2021/07/31 11:57:03;;;;;;;9.70;5.97;;;24.60;48.50;;;;;;5010052;28;20533;-91
2021/07/31 11:59:34;;;;;;;5.80;5.37;;;24.80;47.90;;;;;;5008474;28;20434;-91
2021/07/31 12:02:03;;;;;;;6.20;5.50;;;24.60;47.10;;;;;;4997095;28;20496;-91
2021/07/31 12:04:55;;;;;;;5.80;5.20;;;24.50;47.30;;;;;;4998468;28;20446;-92
2021/07/31 12:07:23;;;;;;;6.53;5.80;;;24.20;47.80;;;;;;4997168;28;20418;-91
2021/07/31 12:10:01;;;;;;;7.33;6.40;;;24.00;48.20;;;;;;4996449;28;20421;-91
2021/07/31 12:12:28;;;;;;;4.80;4.40;;;23.90;49.20;;;;;;5002994;28;20430;-91
2021/07/31 12:15:20;;;;;;;4.63;4.17;;;24.10;49.50;;;;;;5004574;28;20473;-91
2021/07/31 12:17:59;;;;;;;5.93;4.30;;;23.90;48.50;;;;;;4997615;28;20811;-91
2021/07/31 12:20:38;;;;;;;18.93;4.80;;;24.20;48.10;;;;;;4996574;28;20433;-91
2021/07/31 12:23:06;;;;;;;9.03;3.50;;;24.30;47.40;;;;;;4996547;28;20994;-91
2021/07/31 12:25:33;;;;;;;5.53;3.00;;;24.40;46.50;;;;;;4996375;28;20465;-91
2021/07/31 12:28:05;;;;;;;8.83;3.50;;;24.40;46.20;;;;;;4996507;28;20503;-91
2021/07/31 12:30:39;;;;;;;16.20;4.07;;;24.50;46.30;;;;;;4997389;28;20525;-91
2021/07/31 12:33:05;;;;;;;6.87;3.43;;;24.50;46.10;;;;;;4997648;28;20446;-91
2021/07/31 12:35:34;;;;;;;15.73;4.20;;;24.40;46.80;;;;;;5002248;28;20472;-91
2021/07/31 12:38:01;;;;;;;12.93;3.53;;;24.30;47.40;;;;;;5002996;28;20183;-91
2021/07/31 12:40:27;;;;;;;22.63;5.30;;;24.40;47.50;;;;;;5004255;28;20414;-90
2021/07/31 12:42:53;;;;;;;21.13;3.60;;;24.20;47.30;;;;;;4997027;28;20485;-91
2021/07/31 12:45:20;;;;;;;7.77;3.23;;;24.00;48.10;;;;;;4997234;28;20518;-91
2021/07/31 12:47:45;;;;;;;3.57;3.27;;;24.30;48.60;;;;;;5010137;28;20198;-91
2021/07/31 12:50:11;;;;;;;3.70;3.20;;;24.40;48.80;;;;;;5017547;28;20489;-91